KSSC/SSC METAR and TAF weather

Enter ICAO airport designator
Station Type Date Time Source
KSSC METAR 2023/02/05 22:55 UTC NOAA

KSSC 052255Z AUTO 00000KT 10SM CLR 12/07 A3013 RMK AO2 SLP205 T01170070 $


Station Type Date Time Source
KSSC Decoded METAR 2023/02/05 22:55 UTC NOAA

Shaw Air Force Base, SC, United States (KSSC) 33-58N 080-29W 73M
Feb 05, 2023 - 05:55 PM EST / 2023.02.05 2255 UTC
Wind: Calm:0
Visibility: 10 mile(s):0
Sky conditions: clear
Temperature: 53.1 F (11.7 C)
Dew Point: 44.6 F (7.0 C)
Relative Humidity: 72%
Pressure (altimeter): 30.13 in. Hg (1020 hPa)
ob: KSSC 052255Z AUTO 00000KT 10SM CLR 12/07 A3013 RMK AO2 SLP205 T01170070
cycle: 23

Station Type Date Time Source
KSSC TAF 2023/02/05 16:10 UTC NOAA

TAF KSSC 051600Z 0516/0622 VRB06KT 9999 SCT010 BKN050 QNH3034INS
BECMG 0519/0520 VRB06KT 9999 SCT025 BKN050 QNH3019INS
BECMG 0600/0601 VRB06KT 9999 SKC QNH3011INS TX12/0520Z TN05/0611Z LAST NO
AMDS AFT 0516 NEXT 0600

Example: see airport list